To NAV CANADA Home Page Login to a new session Search on AWWS site Feedback and Comments Disclaimer Vers la page française équivalente Tips FAQ What's new on the site To the Forecasts and Observations / NOTAM section To "File a Flight Plan" website Publications and other links Update of the User's profile FIC Telephone Numbers My Weather Data Folder Route Weather Data Regional Weather Data Local Weather Data To the Forecasts and Observations / NOTAM section
Request Generated 04/17/2014 at 12:51:36 UTC . Weather information available at that time is displayed.

METAR/TAF

PANGNIRTUNG/NU    (show WxCam)

METAR CYXP 171200Z 25005KT 3SM IC BKN030 OVC070 M20/M22 A2934 RMK
IC2SC4AS2 SLP938=
METAR CYXP 171100Z 26004KT 15SM IC FEW030 BKN070 OVC220 M19/M22 A2932
RMK SC1AS5CS2 -11.6/-21.3/T/13 MUCH LOOSE SLP930=
LWIS CYXP 171000Z AUTO 26005KT 190V320 M20/M23 A2930=

TAF CYXP 171238Z 1713/1722 26005KT P6SM FEW030 BKN070 TEMPO 1713/1722
3SM IC BKN030
BECMG 1713/1715 26010KT
RMK NXT FCST BY 171900Z=
Your time UTC time
Weather data provided by Environment Canada and NAV CANADA